sensor_id;sensor_type;location;lat;lon;timestamp;pressure;altitude;pressure_sealevel;temperature;humidity
36062;BME280;22123;52.412;20.970;2023-09-19T00:00:59;100006.63;;;17.79;100.00
36062;BME280;22123;52.412;20.970;2023-09-19T00:03:25;100018.84;;;17.88;100.00
36062;BME280;22123;52.412;20.970;2023-09-19T00:05:51;100007.78;;;17.83;100.00
36062;BME280;22123;52.412;20.970;2023-09-19T00:08:16;100022.63;;;17.87;100.00
36062;BME280;22123;52.412;20.970;2023-09-19T00:10:43;100021.78;;;17.86;100.00
36062;BME280;22123;52.412;20.970;2023-09-19T00:13:09;99986.91;;;17.65;100.00
36062;BME280;22123;52.412;20.970;2023-09-19T00:15:37;99987.72;;;17.65;100.00
36062;BME280;22123;52.412;20.970;2023-09-19T00:18:04;100016.66;;;17.78;100.00
36062;BME280;22123;52.412;20.970;2023-09-19T00:20:30;100000.91;;;17.68;100.00
36062;BME280;22123;52.412;20.970;2023-09-19T00:22:56;99974.94;;;17.54;100.00
36062;BME280;22123;52.412;20.970;2023-09-19T00:25:22;100010.97;;;17.80;100.00
36062;BME280;22123;52.412;20.970;2023-09-19T00:27:48;100017.28;;;17.80;100.00
36062;BME280;22123;52.412;20.970;2023-09-19T00:30:14;99947.28;;;17.38;100.00
36062;BME280;22123;52.412;20.970;2023-09-19T00:32:40;100012.88;;;17.79;100.00
36062;BME280;22123;52.412;20.970;2023-09-19T00:35:06;99978.47;;;17.54;100.00
36062;BME280;22123;52.412;20.970;2023-09-19T00:37:32;99997.09;;;17.69;100.00
36062;BME280;22123;52.412;20.970;2023-09-19T00:39:58;100015.84;;;17.78;100.00
36062;BME280;22123;52.412;20.970;2023-09-19T00:42:24;99991.78;;;17.63;100.00
36062;BME280;22123;52.412;20.970;2023-09-19T00:44:50;99974.69;;;17.55;100.00
36062;BME280;22123;52.412;20.970;2023-09-19T00:47:15;100000.22;;;17.73;100.00
36062;BME280;22123;52.412;20.970;2023-09-19T00:49:41;99966.84;;;17.47;100.00
36062;BME280;22123;52.412;20.970;2023-09-19T00:52:07;100002.53;;;17.69;100.00
36062;BME280;22123;52.412;20.970;2023-09-19T00:54:33;99976.44;;;17.50;100.00
36062;BME280;22123;52.412;20.970;2023-09-19T00:57:00;99981.44;;;17.53;100.00
36062;BME280;22123;52.412;20.970;2023-09-19T00:59:26;100009.97;;;17.62;100.00
36062;BME280;22123;52.412;20.970;2023-09-19T01:01:54;99978.19;;;17.44;100.00
36062;BME280;22123;52.412;20.970;2023-09-19T01:04:20;99984.84;;;17.48;100.00
36062;BME280;22123;52.412;20.970;2023-09-19T01:06:46;99946.84;;;17.23;100.00
36062;BME280;22123;52.412;20.970;2023-09-19T01:09:12;99999.78;;;17.58;100.00
36062;BME280;22123;52.412;20.970;2023-09-19T01:11:40;99990.06;;;17.50;100.00
36062;BME280;22123;52.412;20.970;2023-09-19T01:14:25;99986.25;;;17.51;100.00
36062;BME280;22123;52.412;20.970;2023-09-19T01:17:09;99992.16;;;17.48;100.00
36062;BME280;22123;52.412;20.970;2023-09-19T01:23:02;99944.59;;;17.20;100.00
36062;BME280;22123;52.412;20.970;2023-09-19T01:25:28;99980.75;;;17.39;100.00
36062;BME280;22123;52.412;20.970;2023-09-19T01:28:06;99978.28;;;17.37;100.00
36062;BME280;22123;52.412;20.970;2023-09-19T01:30:35;99972.25;;;17.35;100.00
36062;BME280;22123;52.412;20.970;2023-09-19T01:33:01;99947.47;;;17.25;100.00
36062;BME280;22123;52.412;20.970;2023-09-19T01:35:28;99930.25;;;17.13;100.00
36062;BME280;22123;52.412;20.970;2023-09-19T01:37:54;99926.09;;;17.10;100.00
36062;BME280;22123;52.412;20.970;2023-09-19T01:40:21;99940.34;;;17.24;100.00
36062;BME280;22123;52.412;20.970;2023-09-19T01:46:04;99954.84;;;17.36;100.00
36062;BME280;22123;52.412;20.970;2023-09-19T01:48:42;99961.13;;;17.37;100.00
36062;BME280;22123;52.412;20.970;2023-09-19T01:51:11;99917.28;;;17.15;100.00
36062;BME280;22123;52.412;20.970;2023-09-19T01:56:16;99904.09;;;17.12;100.00
36062;BME280;22123;52.412;20.970;2023-09-19T01:58:49;99938.97;;;17.33;100.00
36062;BME280;22123;52.412;20.970;2023-09-19T02:01:20;99927.59;;;17.25;100.00
36062;BME280;22123;52.412;20.970;2023-09-19T02:03:48;99910.28;;;17.19;100.00
36062;BME280;22123;52.412;20.970;2023-09-19T02:06:15;99889.16;;;17.02;100.00
36062;BME280;22123;52.412;20.970;2023-09-19T02:08:40;99937.47;;;17.37;100.00
36062;BME280;22123;52.412;20.970;2023-09-19T02:11:06;99934.75;;;17.37;100.00
36062;BME280;22123;52.412;20.970;2023-09-19T02:13:32;99937.22;;;17.39;100.00
36062;BME280;22123;52.412;20.970;2023-09-19T02:15:59;99890.91;;;17.15;100.00
36062;BME280;22123;52.412;20.970;2023-09-19T02:18:25;99916.16;;;17.34;100.00
36062;BME280;22123;52.412;20.970;2023-09-19T02:20:53;99920.66;;;17.41;100.00
36062;BME280;22123;52.412;20.970;2023-09-19T02:23:18;99935.00;;;17.48;100.00
36062;BME280;22123;52.412;20.970;2023-09-19T02:25:51;99925.22;;;17.47;100.00
36062;BME280;22123;52.412;20.970;2023-09-19T02:28:17;99899.59;;;17.36;100.00
36062;BME280;22123;52.412;20.970;2023-09-19T02:30:43;99893.44;;;17.29;100.00
36062;BME280;22123;52.412;20.970;2023-09-19T02:33:09;99919.88;;;17.52;100.00
36062;BME280;22123;52.412;20.970;2023-09-19T02:35:34;99917.78;;;17.54;100.00
36062;BME280;22123;52.412;20.970;2023-09-19T02:38:00;99912.56;;;17.52;100.00
36062;BME280;22123;52.412;20.970;2023-09-19T02:40:26;99904.50;;;17.46;100.00
36062;BME280;22123;52.412;20.970;2023-09-19T02:42:54;99905.53;;;17.45;100.00
36062;BME280;22123;52.412;20.970;2023-09-19T02:45:20;99906.59;;;17.44;100.00
36062;BME280;22123;52.412;20.970;2023-09-19T02:47:47;99903.69;;;17.45;100.00
36062;BME280;22123;52.412;20.970;2023-09-19T02:50:13;99911.00;;;17.45;100.00
36062;BME280;22123;52.412;20.970;2023-09-19T02:52:43;99901.84;;;17.39;100.00
36062;BME280;22123;52.412;20.970;2023-09-19T02:55:14;99890.47;;;17.30;100.00
36062;BME280;22123;52.412;20.970;2023-09-19T02:57:40;99845.19;;;17.06;100.00
36062;BME280;22123;52.412;20.970;2023-09-19T03:00:09;99850.63;;;17.06;100.00
36062;BME280;22123;52.412;20.970;2023-09-19T03:02:36;99868.91;;;17.17;100.00
36062;BME280;22123;52.412;20.970;2023-09-19T03:05:02;99852.16;;;17.01;100.00
36062;BME280;22123;52.412;20.970;2023-09-19T03:07:28;99867.34;;;17.09;100.00
36062;BME280;22123;52.412;20.970;2023-09-19T03:09:53;99899.78;;;17.23;100.00
36062;BME280;22123;52.412;20.970;2023-09-19T03:12:19;99880.09;;;17.09;100.00
36062;BME280;22123;52.412;20.970;2023-09-19T03:14:45;99875.22;;;16.99;100.00
36062;BME280;22123;52.412;20.970;2023-09-19T03:17:11;99896.34;;;17.15;100.00
36062;BME280;22123;52.412;20.970;2023-09-19T03:19:36;99885.16;;;17.05;100.00
36062;BME280;22123;52.412;20.970;2023-09-19T03:22:02;99890.38;;;17.07;100.00
36062;BME280;22123;52.412;20.970;2023-09-19T03:24:28;99826.06;;;16.63;100.00
36062;BME280;22123;52.412;20.970;2023-09-19T03:26:54;99870.31;;;16.89;100.00
36062;BME280;22123;52.412;20.970;2023-09-19T03:29:20;99875.41;;;16.97;100.00
36062;BME280;22123;52.412;20.970;2023-09-19T03:31:46;99879.69;;;16.93;100.00
36062;BME280;22123;52.412;20.970;2023-09-19T03:34:12;99861.38;;;16.82;100.00
36062;BME280;22123;52.412;20.970;2023-09-19T03:36:37;99869.28;;;16.90;100.00
36062;BME280;22123;52.412;20.970;2023-09-19T03:39:03;99849.38;;;16.71;100.00
36062;BME280;22123;52.412;20.970;2023-09-19T03:41:29;99877.22;;;16.85;100.00
36062;BME280;22123;52.412;20.970;2023-09-19T03:43:55;99873.94;;;16.83;100.00
36062;BME280;22123;52.412;20.970;2023-09-19T03:46:21;99836.78;;;16.58;100.00
36062;BME280;22123;52.412;20.970;2023-09-19T03:48:47;99856.41;;;16.79;100.00
36062;BME280;22123;52.412;20.970;2023-09-19T03:51:13;99835.34;;;16.56;100.00
36062;BME280;22123;52.412;20.970;2023-09-19T03:53:39;99857.22;;;16.61;100.00
36062;BME280;22123;52.412;20.970;2023-09-19T03:56:05;99879.66;;;16.75;100.00
36062;BME280;22123;52.412;20.970;2023-09-19T03:58:30;99827.13;;;16.44;100.00
36062;BME280;22123;52.412;20.970;2023-09-19T04:00:56;99866.75;;;16.70;100.00
36062;BME280;22123;52.412;20.970;2023-09-19T04:03:22;99869.53;;;16.63;100.00
36062;BME280;22123;52.412;20.970;2023-09-19T04:05:48;99870.34;;;16.64;100.00
36062;BME280;22123;52.412;20.970;2023-09-19T04:08:14;99857.84;;;16.63;100.00
36062;BME280;22123;52.412;20.970;2023-09-19T04:10:43;99858.91;;;16.62;100.00
36062;BME280;22123;52.412;20.970;2023-09-19T04:13:09;99841.91;;;16.48;100.00
36062;BME280;22123;52.412;20.970;2023-09-19T04:15:34;99859.13;;;16.60;100.00
36062;BME280;22123;52.412;20.970;2023-09-19T04:18:00;99831.50;;;16.45;100.00
36062;BME280;22123;52.412;20.970;2023-09-19T04:20:26;99853.94;;;16.59;100.00
36062;BME280;22123;52.412;20.970;2023-09-19T04:22:52;99767.16;;;16.08;100.00
36062;BME280;22123;52.412;20.970;2023-09-19T04:25:17;99837.84;;;16.57;100.00
36062;BME280;22123;52.412;20.970;2023-09-19T04:27:44;99835.81;;;16.52;100.00
36062;BME280;22123;52.412;20.970;2023-09-19T04:30:10;99830.81;;;16.49;100.00
36062;BME280;22123;52.412;20.970;2023-09-19T04:32:36;99797.63;;;16.29;100.00
36062;BME280;22123;52.412;20.970;2023-09-19T04:35:02;99847.88;;;16.57;100.00
36062;BME280;22123;52.412;20.970;2023-09-19T04:37:28;99806.16;;;16.32;100.00
36062;BME280;22123;52.412;20.970;2023-09-19T04:39:53;99843.50;;;16.56;100.00
36062;BME280;22123;52.412;20.970;2023-09-19T04:42:19;99796.13;;;16.33;100.00
36062;BME280;22123;52.412;20.970;2023-09-19T04:44:45;99803.81;;;16.36;100.00
36062;BME280;22123;52.412;20.970;2023-09-19T04:47:11;99830.97;;;16.55;100.00
36062;BME280;22123;52.412;20.970;2023-09-19T04:49:36;99839.94;;;16.55;100.00
36062;BME280;22123;52.412;20.970;2023-09-19T04:52:02;99837.00;;;16.57;100.00
36062;BME280;22123;52.412;20.970;2023-09-19T04:54:28;99805.41;;;16.44;100.00
36062;BME280;22123;52.412;20.970;2023-09-19T04:57:00;99827.81;;;16.58;100.00
36062;BME280;22123;52.412;20.970;2023-09-19T04:59:28;99841.16;;;16.59;100.00
36062;BME280;22123;52.412;20.970;2023-09-19T05:01:58;99811.56;;;16.51;100.00
36062;BME280;22123;52.412;20.970;2023-09-19T05:04:24;99806.59;;;16.48;100.00
36062;BME280;22123;52.412;20.970;2023-09-19T05:06:50;99837.69;;;16.71;100.00
36062;BME280;22123;52.412;20.970;2023-09-19T05:09:16;99819.13;;;16.67;100.00
36062;BME280;22123;52.412;20.970;2023-09-19T05:11:41;99823.78;;;16.79;100.00
36062;BME280;22123;52.412;20.970;2023-09-19T05:14:07;99825.00;;;16.83;100.00
36062;BME280;22123;52.412;20.970;2023-09-19T05:16:33;99792.31;;;16.71;100.00
36062;BME280;22123;52.412;20.970;2023-09-19T05:18:59;99816.06;;;16.94;100.00
36062;BME280;22123;52.412;20.970;2023-09-19T05:21:25;99797.97;;;16.88;100.00
36062;BME280;22123;52.412;20.970;2023-09-19T05:23:51;99817.19;;;17.05;100.00
36062;BME280;22123;52.412;20.970;2023-09-19T05:26:17;99782.28;;;16.90;100.00
36062;BME280;22123;52.412;20.970;2023-09-19T05:28:43;99820.19;;;17.15;100.00
36062;BME280;22123;52.412;20.970;2023-09-19T05:31:09;99821.63;;;17.18;100.00
36062;BME280;22123;52.412;20.970;2023-09-19T05:33:34;99798.91;;;17.12;100.00
36062;BME280;22123;52.412;20.970;2023-09-19T05:36:00;99826.63;;;17.33;100.00
36062;BME280;22123;52.412;20.970;2023-09-19T05:38:26;99826.53;;;17.40;100.00
36062;BME280;22123;52.412;20.970;2023-09-19T05:40:53;99796.78;;;17.26;100.00
36062;BME280;22123;52.412;20.970;2023-09-19T05:43:19;99809.34;;;17.39;100.00
36062;BME280;22123;52.412;20.970;2023-09-19T05:45:45;99832.09;;;17.45;100.00
36062;BME280;22123;52.412;20.970;2023-09-19T05:48:11;99824.56;;;17.59;100.00
36062;BME280;22123;52.412;20.970;2023-09-19T05:50:37;99821.44;;;17.55;100.00
36062;BME280;22123;52.412;20.970;2023-09-19T05:53:03;99805.00;;;17.50;100.00
36062;BME280;22123;52.412;20.970;2023-09-19T05:55:29;99841.25;;;17.74;100.00
36062;BME280;22123;52.412;20.970;2023-09-19T05:57:55;99811.06;;;17.64;100.00
36062;BME280;22123;52.412;20.970;2023-09-19T06:00:22;99808.47;;;17.81;100.00
36062;BME280;22123;52.412;20.970;2023-09-19T06:02:56;99805.75;;;17.81;100.00
36062;BME280;22123;52.412;20.970;2023-09-19T06:05:23;99831.13;;;18.05;100.00
36062;BME280;22123;52.412;20.970;2023-09-19T06:07:49;99829.47;;;18.04;100.00
36062;BME280;22123;52.412;20.970;2023-09-19T06:10:15;99833.84;;;18.05;100.00
36062;BME280;22123;52.412;20.970;2023-09-19T06:12:42;99811.22;;;18.04;100.00
36062;BME280;22123;52.412;20.970;2023-09-19T06:15:08;99811.94;;;18.12;100.00
36062;BME280;22123;52.412;20.970;2023-09-19T06:17:34;99828.72;;;18.20;100.00
36062;BME280;22123;52.412;20.970;2023-09-19T06:20:00;99802.94;;;17.99;100.00
36062;BME280;22123;52.412;20.970;2023-09-19T06:22:26;99810.06;;;18.00;100.00
36062;BME280;22123;52.412;20.970;2023-09-19T06:24:51;99838.59;;;18.10;100.00
36062;BME280;22123;52.412;20.970;2023-09-19T06:27:17;99819.53;;;17.98;100.00
36062;BME280;22123;52.412;20.970;2023-09-19T06:29:43;99846.75;;;18.21;100.00
36062;BME280;22123;52.412;20.970;2023-09-19T06:32:09;99823.06;;;18.22;100.00
36062;BME280;22123;52.412;20.970;2023-09-19T06:34:35;99843.41;;;18.43;100.00
36062;BME280;22123;52.412;20.970;2023-09-19T06:37:01;99799.72;;;18.26;100.00
36062;BME280;22123;52.412;20.970;2023-09-19T06:39:27;99811.06;;;18.47;100.00
36062;BME280;22123;52.412;20.970;2023-09-19T06:41:53;99838.03;;;18.72;100.00
36062;BME280;22123;52.412;20.970;2023-09-19T06:44:19;99817.78;;;18.56;100.00
36062;BME280;22123;52.412;20.970;2023-09-19T06:46:45;99830.81;;;18.66;100.00
36062;BME280;22123;52.412;20.970;2023-09-19T06:49:11;99818.69;;;18.73;100.00
36062;BME280;22123;52.412;20.970;2023-09-19T06:51:36;99831.56;;;18.90;100.00
36062;BME280;22123;52.412;20.970;2023-09-19T06:54:02;99821.03;;;18.82;100.00
36062;BME280;22123;52.412;20.970;2023-09-19T06:56:28;99831.13;;;18.93;100.00
36062;BME280;22123;52.412;20.970;2023-09-19T06:58:54;99850.16;;;19.05;100.00
36062;BME280;22123;52.412;20.970;2023-09-19T07:01:20;99856.31;;;19.29;100.00
36062;BME280;22123;52.412;20.970;2023-09-19T07:03:46;99838.94;;;19.18;100.00
36062;BME280;22123;52.412;20.970;2023-09-19T07:06:11;99842.88;;;19.39;100.00
36062;BME280;22123;52.412;20.970;2023-09-19T07:08:37;99835.84;;;19.43;100.00
36062;BME280;22123;52.412;20.970;2023-09-19T07:11:03;99854.16;;;19.60;100.00
36062;BME280;22123;52.412;20.970;2023-09-19T07:13:29;99829.59;;;19.60;100.00
36062;BME280;22123;52.412;20.970;2023-09-19T07:15:58;99841.75;;;19.69;100.00
36062;BME280;22123;52.412;20.970;2023-09-19T07:18:24;99836.63;;;19.73;100.00
36062;BME280;22123;52.412;20.970;2023-09-19T07:20:50;99855.09;;;19.83;100.00
36062;BME280;22123;52.412;20.970;2023-09-19T07:23:20;99885.38;;;20.15;100.00
36062;BME280;22123;52.412;20.970;2023-09-19T07:25:47;99861.56;;;20.10;100.00
36062;BME280;22123;52.412;20.970;2023-09-19T07:28:13;99858.22;;;20.08;100.00
36062;BME280;22123;52.412;20.970;2023-09-19T07:30:39;99857.41;;;20.25;100.00
36062;BME280;22123;52.412;20.970;2023-09-19T07:33:05;99871.59;;;20.44;100.00
36062;BME280;22123;52.412;20.970;2023-09-19T07:35:32;99887.63;;;20.57;100.00
36062;BME280;22123;52.412;20.970;2023-09-19T07:37:58;99895.06;;;20.62;100.00
36062;BME280;22123;52.412;20.970;2023-09-19T07:40:24;99866.78;;;20.51;100.00
36062;BME280;22123;52.412;20.970;2023-09-19T07:42:50;99880.69;;;20.49;100.00
36062;BME280;22123;52.412;20.970;2023-09-19T07:45:16;99891.44;;;20.73;100.00
36062;BME280;22123;52.412;20.970;2023-09-19T07:47:50;99879.84;;;20.49;100.00
36062;BME280;22123;52.412;20.970;2023-09-19T07:50:17;99880.94;;;20.48;100.00
36062;BME280;22123;52.412;20.970;2023-09-19T07:52:43;99879.53;;;20.45;100.00
36062;BME280;22123;52.412;20.970;2023-09-19T07:55:09;99862.00;;;20.41;100.00
36062;BME280;22123;52.412;20.970;2023-09-19T07:57:35;99895.00;;;20.57;100.00
36062;BME280;22123;52.412;20.970;2023-09-19T08:00:01;99912.31;;;20.62;100.00
36062;BME280;22123;52.412;20.970;2023-09-19T08:02:27;99896.97;;;20.39;100.00
36062;BME280;22123;52.412;20.970;2023-09-19T08:04:53;99902.66;;;20.38;100.00
36062;BME280;22123;52.412;20.970;2023-09-19T08:07:19;99906.38;;;20.31;100.00
36062;BME280;22123;52.412;20.970;2023-09-19T08:09:45;99903.75;;;20.20;100.00
36062;BME280;22123;52.412;20.970;2023-09-19T08:12:10;99912.13;;;20.13;100.00
36062;BME280;22123;52.412;20.970;2023-09-19T08:14:36;99924.72;;;20.14;100.00
36062;BME280;22123;52.412;20.970;2023-09-19T08:17:03;99927.84;;;20.23;100.00
36062;BME280;22123;52.412;20.970;2023-09-19T08:19:29;99909.13;;;20.14;100.00
36062;BME280;22123;52.412;20.970;2023-09-19T08:21:56;99920.56;;;20.11;100.00
36062;BME280;22123;52.412;20.970;2023-09-19T08:24:21;99918.16;;;19.98;100.00
36062;BME280;22123;52.412;20.970;2023-09-19T08:26:47;99907.25;;;19.98;100.00
36062;BME280;22123;52.412;20.970;2023-09-19T08:29:13;99918.03;;;20.05;100.00
36062;BME280;22123;52.412;20.970;2023-09-19T08:31:39;99905.56;;;19.97;100.00
36062;BME280;22123;52.412;20.970;2023-09-19T08:34:05;99879.16;;;19.69;100.00
36062;BME280;22123;52.412;20.970;2023-09-19T08:36:31;99929.75;;;19.88;100.00
36062;BME280;22123;52.412;20.970;2023-09-19T08:38:57;99931.41;;;19.89;100.00
36062;BME280;22123;52.412;20.970;2023-09-19T08:41:22;99943.81;;;19.97;100.00
36062;BME280;22123;52.412;20.970;2023-09-19T08:43:48;99927.91;;;19.77;100.00
36062;BME280;22123;52.412;20.970;2023-09-19T08:46:15;99926.78;;;19.61;100.00
36062;BME280;22123;52.412;20.970;2023-09-19T08:48:57;99922.25;;;19.38;100.00
36062;BME280;22123;52.412;20.970;2023-09-19T08:51:27;99960.00;;;19.29;100.00
36062;BME280;22123;52.412;20.970;2023-09-19T08:54:08;99959.03;;;19.06;100.00
36062;BME280;22123;52.412;20.970;2023-09-19T08:56:35;99947.53;;;18.92;100.00
36062;BME280;22123;52.412;20.970;2023-09-19T08:59:05;99973.88;;;18.87;100.00
36062;BME280;22123;52.412;20.970;2023-09-19T09:01:31;99934.28;;;18.49;100.00
36062;BME280;22123;52.412;20.970;2023-09-19T09:03:58;99966.88;;;18.55;100.00
36062;BME280;22123;52.412;20.970;2023-09-19T09:06:25;99957.75;;;18.50;100.00
36062;BME280;22123;52.412;20.970;2023-09-19T09:08:51;99913.91;;;18.16;100.00
36062;BME280;22123;52.412;20.970;2023-09-19T09:11:18;99948.50;;;18.27;100.00
36062;BME280;22123;52.412;20.970;2023-09-19T09:13:44;99929.03;;;18.12;100.00
36062;BME280;22123;52.412;20.970;2023-09-19T09:16:13;99931.31;;;18.15;100.00
36062;BME280;22123;52.412;20.970;2023-09-19T09:18:40;99947.44;;;18.16;100.00
36062;BME280;22123;52.412;20.970;2023-09-19T09:21:06;99955.47;;;18.11;100.00
36062;BME280;22123;52.412;20.970;2023-09-19T09:23:32;99946.56;;;18.04;100.00
36062;BME280;22123;52.412;20.970;2023-09-19T09:25:59;99976.78;;;18.14;100.00
36062;BME280;22123;52.412;20.970;2023-09-19T09:28:26;99983.53;;;18.12;100.00
36062;BME280;22123;52.412;20.970;2023-09-19T09:30:52;99957.44;;;17.92;100.00
36062;BME280;22123;52.412;20.970;2023-09-19T09:33:18;99974.38;;;18.06;100.00
36062;BME280;22123;52.412;20.970;2023-09-19T09:38:13;99960.75;;;17.94;100.00
36062;BME280;22123;52.412;20.970;2023-09-19T09:40:48;99988.72;;;18.13;100.00
36062;BME280;22123;52.412;20.970;2023-09-19T09:43:34;99968.34;;;17.92;100.00
36062;BME280;22123;52.412;20.970;2023-09-19T09:48:32;99996.88;;;18.01;100.00
36062;BME280;22123;52.412;20.970;2023-09-19T09:50:58;100008.41;;;18.03;100.00
36062;BME280;22123;52.412;20.970;2023-09-19T09:53:28;100034.69;;;18.10;100.00
36062;BME280;22123;52.412;20.970;2023-09-19T09:56:05;99994.09;;;17.89;100.00
36062;BME280;22123;52.412;20.970;2023-09-19T09:58:49;99997.00;;;17.95;100.00
36062;BME280;22123;52.412;20.970;2023-09-19T10:01:15;100005.19;;;18.06;100.00
36062;BME280;22123;52.412;20.970;2023-09-19T10:03:41;100003.28;;;18.07;100.00
36062;BME280;22123;52.412;20.970;2023-09-19T10:06:09;99958.69;;;17.78;100.00
36062;BME280;22123;52.412;20.970;2023-09-19T10:08:36;99981.25;;;17.97;100.00
36062;BME280;22123;52.412;20.970;2023-09-19T10:11:15;99979.50;;;18.02;100.00
36062;BME280;22123;52.412;20.970;2023-09-19T10:13:42;99998.00;;;18.12;100.00
36062;BME280;22123;52.412;20.970;2023-09-19T10:16:11;99972.88;;;18.10;100.00
36062;BME280;22123;52.412;20.970;2023-09-19T10:18:37;99995.38;;;18.17;100.00
36062;BME280;22123;52.412;20.970;2023-09-19T10:21:04;99984.84;;;18.09;100.00
36062;BME280;22123;52.412;20.970;2023-09-19T10:23:31;99993.38;;;18.13;100.00
36062;BME280;22123;52.412;20.970;2023-09-19T10:25:58;99972.03;;;18.10;100.00
36062;BME280;22123;52.412;20.970;2023-09-19T10:28:28;99979.88;;;18.18;100.00
36062;BME280;22123;52.412;20.970;2023-09-19T10:30:54;99918.91;;;17.88;100.00
36062;BME280;22123;52.412;20.970;2023-09-19T10:33:22;99968.03;;;18.24;100.00
36062;BME280;22123;52.412;20.970;2023-09-19T10:35:49;100000.75;;;18.48;100.00
36062;BME280;22123;52.412;20.970;2023-09-19T10:38:18;99982.00;;;18.28;100.00
36062;BME280;22123;52.412;20.970;2023-09-19T10:40:50;99942.56;;;18.06;100.00
36062;BME280;22123;52.412;20.970;2023-09-19T10:43:16;99998.41;;;18.39;100.00
36062;BME280;22123;52.412;20.970;2023-09-19T10:45:43;100002.53;;;18.42;100.00
36062;BME280;22123;52.412;20.970;2023-09-19T10:48:10;99992.81;;;18.34;100.00
36062;BME280;22123;52.412;20.970;2023-09-19T10:50:46;100013.41;;;18.42;100.00
36062;BME280;22123;52.412;20.970;2023-09-19T10:53:14;99998.97;;;18.30;100.00
36062;BME280;22123;52.412;20.970;2023-09-19T10:55:49;100018.38;;;18.33;100.00
36062;BME280;22123;52.412;20.970;2023-09-19T10:58:28;100011.63;;;18.24;100.00
36062;BME280;22123;52.412;20.970;2023-09-19T11:00:58;99999.69;;;18.25;100.00
36062;BME280;22123;52.412;20.970;2023-09-19T11:03:24;100002.88;;;18.22;100.00
36062;BME280;22123;52.412;20.970;2023-09-19T11:06:10;100022.19;;;18.32;100.00
36062;BME280;22123;52.412;20.970;2023-09-19T11:11:40;100043.53;;;18.59;100.00
36062;BME280;22123;52.412;20.970;2023-09-19T11:30:33;100014.03;;;18.80;100.00
36062;BME280;22123;52.412;20.970;2023-09-19T11:33:32;100000.06;;;18.76;100.00
36062;BME280;22123;52.412;20.970;2023-09-19T11:41:38;100031.34;;;19.21;100.00
36062;BME280;22123;52.412;20.970;2023-09-19T11:49:16;99954.91;;;18.45;100.00
36062;BME280;22123;52.412;20.970;2023-09-19T11:51:43;99963.94;;;18.45;100.00
36062;BME280;22123;52.412;20.970;2023-09-19T11:54:11;100035.06;;;18.91;100.00
36062;BME280;22123;52.412;20.970;2023-09-19T11:56:38;100030.16;;;18.81;100.00
36062;BME280;22123;52.412;20.970;2023-09-19T11:59:04;100039.53;;;18.85;100.00
36062;BME280;22123;52.412;20.970;2023-09-19T12:01:32;100029.47;;;18.86;100.00
36062;BME280;22123;52.412;20.970;2023-09-19T12:03:59;100036.09;;;18.90;100.00
36062;BME280;22123;52.412;20.970;2023-09-19T12:06:26;100055.47;;;19.00;100.00
36062;BME280;22123;52.412;20.970;2023-09-19T12:08:52;100053.78;;;19.11;100.00
36062;BME280;22123;52.412;20.970;2023-09-19T12:11:18;100025.06;;;19.08;100.00
36062;BME280;22123;52.412;20.970;2023-09-19T12:13:44;100025.69;;;19.10;100.00
36062;BME280;22123;52.412;20.970;2023-09-19T12:16:12;100038.59;;;19.15;100.00
36062;BME280;22123;52.412;20.970;2023-09-19T12:18:38;100060.03;;;19.35;100.00
36062;BME280;22123;52.412;20.970;2023-09-19T12:21:04;100050.94;;;19.18;100.00
36062;BME280;22123;52.412;20.970;2023-09-19T12:23:30;100066.91;;;19.26;100.00
36062;BME280;22123;52.412;20.970;2023-09-19T12:25:56;100045.47;;;19.06;100.00
36062;BME280;22123;52.412;20.970;2023-09-19T12:28:25;100057.22;;;19.06;100.00
36062;BME280;22123;52.412;20.970;2023-09-19T12:30:52;100047.25;;;19.12;100.00
36062;BME280;22123;52.412;20.970;2023-09-19T12:33:19;100024.84;;;18.98;100.00
36062;BME280;22123;52.412;20.970;2023-09-19T12:35:45;100038.13;;;19.06;100.00
36062;BME280;22123;52.412;20.970;2023-09-19T12:38:30;100051.78;;;19.06;100.00
36062;BME280;22123;52.412;20.970;2023-09-19T12:40:57;100043.59;;;19.06;100.00
36062;BME280;22123;52.412;20.970;2023-09-19T12:43:23;100039.09;;;19.00;100.00
36062;BME280;22123;52.412;20.970;2023-09-19T12:45:49;100038.22;;;19.11;100.00
36062;BME280;22123;52.412;20.970;2023-09-19T12:48:25;100078.44;;;19.28;100.00
36062;BME280;22123;52.412;20.970;2023-09-19T12:51:04;100076.66;;;19.34;100.00
36062;BME280;22123;52.412;20.970;2023-09-19T12:53:31;100061.94;;;19.23;100.00
36062;BME280;22123;52.412;20.970;2023-09-19T12:55:58;100061.00;;;19.17;100.00
36062;BME280;22123;52.412;20.970;2023-09-19T12:58:24;100060.06;;;19.23;100.00
36062;BME280;22123;52.412;20.970;2023-09-19T13:00:50;100046.63;;;19.22;100.00
36062;BME280;22123;52.412;20.970;2023-09-19T13:03:38;100066.06;;;19.37;100.00
36062;BME280;22123;52.412;20.970;2023-09-19T13:06:04;100035.63;;;19.17;100.00
36062;BME280;22123;52.412;20.970;2023-09-19T13:08:31;100055.66;;;19.34;100.00
36062;BME280;22123;52.412;20.970;2023-09-19T13:11:13;100068.44;;;19.45;100.00
36062;BME280;22123;52.412;20.970;2023-09-19T13:16:11;100048.53;;;19.21;100.00
36062;BME280;22123;52.412;20.970;2023-09-19T13:18:53;100057.44;;;19.28;100.00
36062;BME280;22123;52.412;20.970;2023-09-19T13:21:30;100059.31;;;19.40;100.00
36062;BME280;22123;52.412;20.970;2023-09-19T13:26:46;100049.63;;;19.32;100.00
36062;BME280;22123;52.412;20.970;2023-09-19T13:29:12;100069.50;;;19.44;100.00